Terminal Aerodrome Forecast
Issued by NWS Corpus Christi, TX

Home | Current Version | Previous Version | Text Only | Print | Product List | Glossary On
Versions: 1 2 3 4 5 6 7 8 9 10 11 12 13 14 15
000
FTUS44 KCRP 300500
TAFCRP
TAF
KCRP 300532Z 3006/3106 14005KT P6SM SCT018 BKN200
     FM300900 14010KT P6SM VCSH SCT015 BKN060
     FM301400 16007KT P6SM VCSH SCT020 BKN050
      TEMPO 3014/3018 5SM -TSRA BKN018CB
     FM301800 12013KT P6SM SCT035 BKN150
     FM310300 12004KT P6SM BKN120=

USA.gov is the U.S. government's official web portal to all federal, state and local government web resources and services.